Flight Track Log - Related Links

Times and Time Zones

All times are in EDT time to prevent confusion due to time zone crossing. See the N36715 flight status page for this flight to view local times or setup timezone preferences in your user account.

Time Position Orientation Groundspeed Altitude Reporting Facility
EDT Latitude Longitude Course Direction KTS MPH feet Rate Location/Type
Sun 05:42:29 PM -30.5010 150.9747 166° South 177 204 7,400  Level Aus ATC (RADAR)
Sun 05:42:44 PM -30.5128 150.9781 166° South 176 203 8,000 2,160 Climbing Aus ATC (RADAR)
Sun 05:43:19 PM -30.5424 150.9763 183° South 178 205 9,200 2,240 Climbing Aus ATC (RADAR)
Sun 05:43:59 PM -30.5764 150.9722 186° South 183 211 10,800 2,080 Climbing Aus ATC (RADAR)
Sun 05:44:34 PM -30.6077 150.9689 185° South 193 222 11,800 2,229 Climbing Aus ATC (RADAR)
Sun 05:45:09 PM -30.6376 150.9661 185° South 188 216 13,400 2,400 Climbing Aus ATC (RADAR)
Sun 05:45:44 PM -30.6670 150.9636 184° South 184 212 14,600 2,160 Climbing Aus ATC (RADAR)
Sun 05:47:14 PM -30.7432 150.9571 184° South 183 211 17,900 2,087 Climbing Aus ATC (RADAR)
Sun 05:47:39 PM -30.7648 150.9559 183° South 186 214 18,600 1,400 Climbing Aus ATC (RADAR)
Sun 05:48:14 PM -30.7960 150.9530 185° South 193 222 19,300 525 Climbing Aus ATC (RADAR)
Sun 05:48:59 PM -30.8437 150.9477 185° South 232 267 19,300 -75 Level Aus ATC (RADAR)
Sun 05:49:34 PM -30.8852 150.9434 185° South 254 292 19,200 -87 Descending Aus ATC (RADAR)
Sun 05:50:08 PM -30.9285 150.9397 184° South 266 306 19,200  Level Aus ATC (RADAR)
Sun 05:50:43 PM -30.9721 150.9349 185° South 268 308 19,200  Level Aus ATC (RADAR)
Sun 05:51:53 PM -31.0609 150.9262 185° South 273 314 19,200  Level Aus ATC (RADAR)
Sun 05:52:13 PM -31.0862 150.9236 185° South 273 314 19,200  Level Aus ATC (RADAR)
Sun 05:52:38 PM -31.1177 150.9208 184° South 272 313 19,200  Level Aus ATC (RADAR)
Sun 05:53:13 PM -31.1624 150.9164 185° South 275 316 19,200  Level Aus ATC (RADAR)
Sun 05:53:58 PM -31.2193 150.9106 185° South 272 313 19,200  Level Aus ATC (RADAR)
Sun 05:54:33 PM -31.2638 150.9062 185° South 274 315 19,200  Level Aus ATC (RADAR)
Sun 05:55:08 PM -31.3082 150.9020 185° South 274 315 19,200  Level Aus ATC (RADAR)
Sun 05:55:48 PM -31.3596 150.8969 185° South 277 319 19,200  Level Aus ATC (RADAR)
Sun 05:56:58 PM -31.4511 150.8879 185° South 283 326 19,200  Level Aus ATC (RADAR)
Sun 05:57:23 PM -31.4844 150.8852 184° South 285 328 19,200  Level Aus ATC (RADAR)
Sun 05:57:48 PM -31.5176 150.8817 185° South 286 329 19,200  Level Aus ATC (RADAR)
Sun 05:58:23 PM -31.5643 150.8775 184° South 286 329 19,200  Level Aus ATC (RADAR)
Sun 05:59:03 PM -31.6176 150.8719 185° South 287 330 19,200  Level Aus ATC (RADAR)
Sun 05:59:41 PM -31.6684 150.8670 185° South 288 331 19,200  Level Aus ATC (RADAR)
Sun 06:00:12 PM -31.7111 150.8628 185° South 288 331 19,200  Level Aus ATC (RADAR)
Sun 06:00:47 PM -31.7577 150.8589 184° South 286 329 19,200  Level Aus ATC (RADAR)
Sun 06:02:08 PM -31.8646 150.8481 185° South 288 331 19,200  Level Aus ATC (RADAR)
Sun 06:02:33 PM -31.8956 150.8452 185° South 290 334 19,200  Level Aus ATC (RADAR)
Sun 06:02:57 PM -31.9315 150.8415 185° South 287 330 19,200  Level Aus ATC (RADAR)
Sun 06:03:33 PM -31.9760 150.8375 184° South 291 335 19,200  Level Aus ATC (RADAR)
Sun 06:04:17 PM -32.0386 150.8312 185° South 287 330 19,200  Level Aus ATC (RADAR)
Sun 06:04:49 PM -32.0593 150.8304 182° South 290 334 19,200  Level Aus ATC (RADAR)
Sun 06:05:47 PM -32.1611 150.8274 181° South 290 334 19,200  Level Aus ATC (RADAR)
Sun 06:06:02 PM -32.1811 150.8264 182° South 287 330 19,200 -60 Level Aus ATC (RADAR)
Sun 06:07:27 PM -32.2953 150.8225 182° South 286 329 19,100 -55 Descending Aus ATC (RADAR)
Sun 06:07:52 PM -32.3287 150.8213 182° South 286 329 19,100  Level Aus ATC (RADAR)
Sun 06:08:27 PM -32.3756 150.8199 181° South 286 329 19,100  Level Aus ATC (RADAR)
Sun 06:09:11 PM -32.4351 150.8175 182° South 283 326 19,100  Level Aus ATC (RADAR)
Sun 06:09:46 PM -32.4818 150.8159 182° South 285 328 19,100  Level Aus ATC (RADAR)
Sun 06:10:31 PM -32.5419 150.8141 182° South 284 327 19,100  Level Aus ATC (RADAR)
Sun 06:10:56 PM -32.5752 150.8125 182° South 284 327 19,100  Level Aus ATC (RADAR)
Sun 06:12:01 PM -32.6624 150.8097 182° South 288 331 19,100  Level Aus ATC (RADAR)
Sun 06:12:26 PM -32.6955 150.8084 182° South 284 327 19,100  Level Aus ATC (RADAR)
Sun 06:12:51 PM -32.7286 150.8074 182° South 284 327 19,100  Level Aus ATC (RADAR)
Sun 06:13:26 PM -32.7753 150.8057 182° South 285 328 19,100  Level Aus ATC (RADAR)
Sun 06:14:06 PM -32.8284 150.8036 182° South 284 327 19,100  Level Aus ATC (RADAR)
Sun 06:14:41 PM -32.8752 150.8022 181° South 286 329 19,100  Level Aus ATC (RADAR)
Sun 06:15:17 PM -32.9194 150.8008 182° South 288 331 19,100 -880 Level Aus ATC (RADAR)
Sun 06:15:56 PM -32.9777 150.7985 182° South 298 343 18,000 -1,706 Descending Aus ATC (RADAR)
Sun 06:16:59 PM -33.0676 150.7957 182° South 302 348 16,200 -1,618 Descending Aus ATC (RADAR)
Sun 06:17:25 PM -33.1011 150.7941 182° South 294 338 15,600 -1,435 Descending Aus ATC (RADAR)
Sun 06:17:45 PM -33.1299 150.7934 181° South 284 327 15,100 -1,527 Descending Aus ATC (RADAR)
Sun 06:18:20 PM -33.1766 150.7917 182° South 282 325 14,200 -1,575 Descending Aus ATC (RADAR)
Sun 06:19:05 PM -33.2355 150.7892 182° South 276 318 13,000 -1,482 Descending Aus ATC (RADAR)
Sun 06:19:45 PM -33.2861 150.7871 182° South 284 327 12,100 -1,571 Descending Aus ATC (RADAR)
Sun 06:20:29 PM -33.3449 150.7855 181° South 283 326 10,800 -1,652 Descending Aus ATC (RADAR)
Sun 06:20:54 PM -33.3760 150.7841 182° South 272 313 10,200 -1,393 Descending Aus ATC (RADAR)
Sun 06:21:25 PM -33.4137 150.7824 182° South 255 293 9,500 -1,309 Descending Aus ATC (RADAR)
Sun 06:22:44 PM -33.5054 150.7790 182° South 251 289 7,800 -1,320 Descending Aus ATC (RADAR)
Sun 06:23:05 PM -33.5298 150.7782 182° South 242 278 7,300 -1,393 Descending Aus ATC (RADAR)
Sun 06:23:40 PM -33.5690 150.7770 181° South 236 272 6,500 -1,275 Descending Aus ATC (RADAR)
Sun 06:24:25 PM -33.6177 150.7869 170° South 234 269 5,600 -1,275 Descending Aus ATC (RADAR)
Sun 06:25:00 PM -33.6532 150.8052 157° South 230 265 4,800 -1,543 Descending Aus ATC (RADAR)
Sun 06:25:35 PM -33.6864 150.8220 157° South 212 244 3,800 -1,629 Descending Aus ATC (RADAR)
Sun 06:26:10 PM -33.7172 150.8377 157° South 198 228 2,900 -944 Descending Aus ATC (RADAR)
Sun 06:27:23 PM -33.7748 150.8667 157° South 173 199 2,100 -545 Descending Aus ATC (RADAR)
Sun 06:27:49 PM -33.7914 150.8755 156° South 156 180 2,000 -130 Descending Aus ATC (RADAR)
Sun 06:28:09 PM -33.8031 150.8830 152° Southeast 135 155 2,000 -109 Level Aus ATC (RADAR)
Sun 06:28:44 PM -33.8211 150.8996 143° Southeast 136 157 1,900 -353 Descending Aus ATC (RADAR)
Sun 06:29:34 PM -33.8430 150.9190 144° Southeast 113 130 1,500 -282 Descending Aus ATC (RADAR)
Sun 06:30:09 PM -33.8566 150.9365 133° Southeast 119 137 1,500  Level Aus ATC (RADAR)
Sun 06:30:54 PM -33.8743 150.9582 134° Southeast 119 137 1,500  Level Aus ATC (RADAR)
Sun 06:31:18 PM -33.8838 150.9690 136° Southeast 119 137 1,500 -126 Level Aus ATC (RADAR)
Sun 06:32:29 PM -33.9087 151.0086 127° Southeast 120 138 1,300 -375 Descending Aus ATC (RADAR)
Sun 06:32:54 PM -33.9183 151.0205 134° Southeast 116 133 900 -720 Descending Aus ATC (RADAR)
Sun 06:33:19 PM -33.9292 151.0161 198° South 98 113 700 -800 Descending Aus ATC (RADAR)
Sun 06:33:54 PM -33.9287 150.9995 272° West 97 112 100 -1,029 Descending Aus ATC (RADAR)

Login

Don't have an account? Register now (free) for customized features, flight alerts, and more!